Flight Track Log - Related Links

Times and Time Zones

All times are in EDT time to prevent confusion due to time zone crossing. See the N924AK flight status page for this flight to view local times or setup timezone preferences in your user account.

Time Position Orientation Groundspeed Altitude Reporting Facility
EDT Latitude Longitude Course Direction KTS MPH feet Rate Location/Type
Sun 01:57:00 AM 24.1699 -85.1490 27° Northeast  Level Estimated
Sun 01:58:00 AM 24.2856 -85.0835 27° Northeast  Level Estimated
Sun 01:59:00 AM 24.4013 -85.0178 27° Northeast  Level Estimated
Sun 02:00:00 AM 24.5169 -84.9520 27° Northeast  Level Estimated
Sun 02:01:00 AM 24.6325 -84.8860 27° Northeast  Level Estimated
Sun 02:02:00 AM 24.7481 -84.8200 27° Northeast  Level Estimated
Sun 02:03:00 AM 24.8636 -84.7538 27° Northeast  Level Estimated
Sun 02:04:00 AM 24.9791 -84.6875 27° Northeast  Level Estimated
Sun 02:05:00 AM 25.0946 -84.6211 28° Northeast  Level Estimated
Sun 02:06:00 AM 25.2101 -84.5546 28° Northeast  Level Estimated
Sun 02:07:00 AM 25.3255 -84.4879 28° Northeast  Level Estimated
Sun 02:08:00 AM 25.4409 -84.4211 28° Northeast  Level Estimated
Sun 02:09:00 AM 25.5562 -84.3541 28° Northeast  Level Estimated
Sun 02:10:00 AM 25.6716 -84.2871 28° Northeast  Level Estimated
Sun 02:11:00 AM 25.7869 -84.2199 28° Northeast  Level Estimated
Sun 02:12:00 AM 25.9021 -84.1526 28° Northeast  Level Estimated
Sun 02:13:00 AM 26.0174 -84.0851 28° Northeast  Level Estimated
Sun 02:14:00 AM 26.1326 -84.0175 28° Northeast  Level Estimated
Sun 02:15:00 AM 26.2478 -83.9498 28° Northeast  Level Estimated
Sun 02:16:00 AM 26.3629 -83.8820 28° Northeast  Level Estimated
Sun 02:17:00 AM 26.4780 -83.8140 28° Northeast  Level Estimated
Sun 02:18:00 AM 26.5931 -83.7459 28° Northeast  Level Estimated
Sun 02:19:00 AM 26.7082 -83.6776 28° Northeast  Level Estimated
Sun 02:20:00 AM 26.8232 -83.6092 28° Northeast  Level Estimated
Sun 02:21:00 AM 26.9382 -83.5407 28° Northeast  Level Estimated
Sun 02:21:06 AM 23.9175 -86.1919 28° Northeast 502 578 37,000  Level Houston Center
Sun 02:22:00 AM 27.0531 -83.4720 28° Northeast  Level Estimated
Sun 02:22:07 AM 24.0336 -86.1628 13° North 432 497 37,000  Level Houston Center
Sun 02:23:00 AM 27.1680 -83.4032 28° Northeast  Level Estimated
Sun 02:23:07 AM 24.1461 -86.1094 23° Northeast 437 503 37,500  Level Houston Center
Sun 02:24:00 AM 27.2829 -83.3342 28° Northeast  Level Estimated
Sun 02:24:07 AM 24.2619 -86.0664 19° North 439 505 38,800  Level Houston Center
Sun 02:25:00 AM 27.3978 -83.2651 28° Northeast  Level Estimated
Sun 02:25:07 AM 24.3694 -86.0239 20° North 433 498 39,000  Level Houston Center
Sun 02:26:00 AM 27.5126 -83.1959 28° Northeast  Level Estimated
Sun 02:26:07 AM 24.4797 -85.9806 20° North 427 491 39,000  Level Houston Center
Sun 02:27:07 AM 24.5964 -85.9361 19° North 429 494 39,000  Level Houston Center
Sun 02:28:07 AM 24.7094 -85.8906 20° North 430 495 39,000  Level Houston Center
Sun 02:29:07 AM 24.8278 -85.8458 19° North 434 499 39,000  Level Houston Center
Sun 02:30:07 AM 24.9450 -85.7986 20° North 438 504 39,000  Level Houston Center
Sun 02:31:07 AM 25.0619 -85.7533 19° North 441 507 39,000 -50 Level Houston Center
Sun 02:32:07 AM 25.1789 -85.7081 19° North 442 509 38,900  Descending Houston Center
Sun 02:33:08 AM 25.2892 -85.6642 20° North 439 505 39,000 50 Climbing Houston Center
Sun 02:34:08 AM 25.4069 -85.6158 20° North 445 512 39,000  Level Houston Center
Sun 02:35:08 AM 25.5194 -85.5464 29° Northeast 459 528 39,000  Level Houston Center
Sun 02:36:08 AM 25.6339 -85.4767 29° Northeast 465 535 39,000  Level Houston Center
Sun 02:36:27 AM 25.6844 -85.4464 28° Northeast 464 534 39,000  Level Miami Center
Sun 02:37:30 AM 25.7994 -85.3694 31° Northeast 470 541 39,000  Level Miami Center
Sun 02:38:29 AM 25.9100 -85.2967 31° Northeast 453 521 39,000  Level Miami Center
Sun 02:39:29 AM 26.0183 -85.2233 31° Northeast 459 528 39,000  Level Miami Center
Sun 02:40:29 AM 26.1411 -85.1558 26° Northeast 465 535 39,000  Level Miami Center
Sun 02:41:27 AM 26.2475 -85.0800 33° Northeast 465 535 39,000  Level Miami Center
Sun 02:42:27 AM 26.3681 -85.0122 27° Northeast 465 535 39,000  Level Miami Center
Sun 02:43:27 AM 26.4828 -84.9389 30° Northeast 465 535 39,000  Level Miami Center
Sun 02:44:29 AM 26.5831 -84.8600 35° Northeast 465 535 39,000  Level Miami Center
Sun 02:45:27 AM 26.7014 -84.7892 28° Northeast 465 535 39,000  Level Miami Center
Sun 02:46:28 AM 26.8200 -84.7183 28° Northeast 465 535 39,000  Level Miami Center
Sun 02:47:28 AM 26.9325 -84.6444 30° Northeast 465 535 39,000  Level Miami Center
Sun 02:48:30 AM 27.0447 -84.5706 30° Northeast 465 535 39,000  Level Miami Center
Sun 02:49:29 AM 27.1633 -84.4969 29° Northeast 465 535 39,000  Level Miami Center
Sun 02:50:30 AM 27.2778 -84.4228 30° Northeast 465 535 39,000  Level Miami Center
Sun 02:52:32 AM 27.5042 -84.2750 30° Northeast 498 573 39,000  Level Jacksonville Center
Sun 02:53:32 AM 27.6156 -84.1992 31° Northeast 477 549 39,000  Level Jacksonville Center
Sun 02:54:32 AM 27.7350 -84.1233 29° Northeast 477 549 39,000  Level Jacksonville Center
Sun 02:55:32 AM 27.8464 -84.0425 33° Northeast 477 549 39,000  Level Jacksonville Center
Sun 02:56:32 AM 27.9661 -83.9617 31° Northeast 482 555 39,000  Level Jacksonville Center
Sun 02:57:32 AM 28.0731 -83.8806 34° Northeast 477 549 39,000  Level Jacksonville Center
Sun 02:58:32 AM 28.1989 -83.7922 32° Northeast 477 549 39,000  Level Jacksonville Center
Sun 02:59:32 AM 28.3122 -83.7083 33° Northeast 477 549 39,000  Level Jacksonville Center
Sun 03:00:32 AM 28.4275 -83.6267 32° Northeast 482 555 39,000  Level Jacksonville Center
Sun 03:01:32 AM 28.5447 -83.5425 32° Northeast 482 555 39,000  Level Jacksonville Center
Sun 03:02:32 AM 28.6600 -83.4628 31° Northeast 482 555 39,000  Level Jacksonville Center
Sun 03:03:32 AM 28.7750 -83.3758 34° Northeast 482 555 39,000  Level Jacksonville Center
Sun 03:04:32 AM 28.8922 -83.2933 32° Northeast 482 555 39,000  Level Jacksonville Center
Sun 03:05:32 AM 28.9969 -83.2178 32° Northeast 482 555 39,000  Level Jacksonville Center
Sun 03:06:32 AM 29.1161 -83.1328 32° Northeast 491 565 39,000  Level Jacksonville Center
Sun 03:07:32 AM 29.2289 -83.0472 33° Northeast 496 571 39,000  Level Jacksonville Center
Sun 03:08:32 AM 29.3436 -82.9617 33° Northeast 496 571 39,000  Level Jacksonville Center
Sun 03:09:32 AM 29.4628 -82.8758 32° Northeast 496 571 39,000  Level Jacksonville Center
Sun 03:10:32 AM 29.5839 -82.7947 30° Northeast 501 577 39,000  Level Jacksonville Center
Sun 03:11:32 AM 29.7006 -82.7083 33° Northeast 501 577 39,000  Level Jacksonville Center
Sun 03:12:32 AM 29.8172 -82.6147 35° Northeast 501 577 39,000  Level Jacksonville Center
Sun 03:13:32 AM 29.9361 -82.5283 32° Northeast 508 585 39,000  Level Jacksonville Center
Sun 03:14:32 AM 30.0506 -82.4461 32° Northeast 501 577 39,000  Level Jacksonville Center
Sun 03:15:32 AM 30.1714 -82.3592 32° Northeast 501 577 39,000  Level Jacksonville Center
Sun 03:16:32 AM 30.2900 -82.2647 35° Northeast 507 583 39,000  Level Jacksonville Center
Sun 03:17:32 AM 30.4064 -82.1772 33° Northeast 507 583 39,000  Level Jacksonville Center
Sun 03:18:32 AM 30.5250 -82.0872 33° Northeast 507 583 39,000  Level Jacksonville Center
Sun 03:19:32 AM 30.6456 -82.0039 31° Northeast 502 578 39,000  Level Jacksonville Center
Sun 03:20:32 AM 30.7742 -81.9061 33° Northeast 497 572 39,000  Level Jacksonville Center
Sun 03:21:32 AM 30.8967 -81.8153 32° Northeast 502 578 39,000  Level Jacksonville Center
Sun 03:22:32 AM 31.0150 -81.7242 33° Northeast 502 578 39,000  Level Jacksonville Center
Sun 03:23:32 AM 31.1353 -81.6353 32° Northeast 502 578 39,000  Level Jacksonville Center
Sun 03:24:32 AM 31.2553 -81.5414 34° Northeast 508 585 39,000  Level Jacksonville Center
Sun 03:25:32 AM 31.3711 -81.4497 34° Northeast 508 585 39,000  Level Jacksonville Center
Sun 03:26:32 AM 31.4953 -81.3553 33° Northeast 507 583 39,000  Level Jacksonville Center
Sun 03:27:32 AM 31.5986 -81.2731 34° Northeast 507 583 39,000  Level Jacksonville Center
Sun 03:28:32 AM 31.7289 -81.1731 33° Northeast 502 578 39,000  Level Jacksonville Center
Sun 03:29:32 AM 31.8342 -81.0903 34° Northeast 501 577 39,000  Level Jacksonville Center
Sun 03:30:32 AM 31.9603 -80.9925 33° Northeast 501 577 39,000  Level Jacksonville Center
Sun 03:31:32 AM 32.0778 -80.9017 33° Northeast 501 577 39,000  Level Jacksonville Center
Sun 03:32:32 AM 32.1975 -80.8108 33° Northeast 506 582 39,000  Level Jacksonville Center
Sun 03:33:32 AM 32.3025 -80.7272 34° Northeast 506 582 39,000  Level Jacksonville Center
Sun 03:34:32 AM 32.4219 -80.6308 34° Northeast 506 582 39,000  Level Jacksonville Center
Sun 03:35:32 AM 32.5414 -80.5367 34° Northeast 511 588 39,000  Level Jacksonville Center
Sun 03:36:32 AM 32.6625 -80.4422 33° Northeast 511 588 39,000  Level Jacksonville Center
Sun 03:37:32 AM 32.7778 -80.3503 34° Northeast 506 582 39,000  Level Jacksonville Center
Sun 03:38:32 AM 32.8886 -80.2581 35° Northeast 501 577 39,000  Level Jacksonville Center
Sun 03:39:32 AM 33.0097 -80.1653 33° Northeast 507 583 39,000  Level Jacksonville Center
Sun 03:40:32 AM 33.1431 -80.0544 35° Northeast 507 583 39,000 -50 Level Jacksonville Center
Sun 03:41:32 AM 33.2597 -79.9614 34° Northeast 513 590 38,900 -350 Descending Jacksonville Center
Sun 03:42:32 AM 33.3767 -79.8681 34° Northeast 508 585 38,300 -800 Descending Jacksonville Center
Sun 03:43:32 AM 33.4972 -79.7692 34° Northeast 508 585 37,300 -1,000 Descending Jacksonville Center
Sun 03:44:32 AM 33.6178 -79.6703 34° Northeast 513 590 36,300 -1,050 Descending Jacksonville Center
Sun 03:45:32 AM 33.7364 -79.5761 33° Northeast 513 590 35,200 -1,050 Descending Jacksonville Center
Sun 03:46:32 AM 33.8550 -79.4792 34° Northeast 513 590 34,200 -989 Descending Jacksonville Center
Sun 03:48:40 AM 34.0856 -79.2903 34° Northeast 509 586 32,100 -989 Descending Washington Center
Sun 03:49:40 AM 34.1947 -79.1997 34° Northeast 491 565 31,100 -900 Descending Washington Center
Sun 03:50:40 AM 34.3208 -79.0922 35° Northeast 491 565 30,300 -550 Descending Washington Center
Sun 03:51:40 AM 34.4192 -79.0133 33° Northeast 484 557 30,000 -150 Descending Washington Center
Sun 03:52:40 AM 34.5411 -78.9100 35° Northeast 479 551 30,000  Level Washington Center
Sun 03:53:40 AM 34.6500 -78.8186 35° Northeast 479 551 30,000  Level Washington Center
Sun 03:54:40 AM 34.7631 -78.7219 35° Northeast 484 557 30,000  Level Washington Center
Sun 03:55:40 AM 34.8783 -78.6250 35° Northeast 493 567 30,000  Level Washington Center
Sun 03:56:40 AM 34.9933 -78.5278 35° Northeast 500 575 30,000  Level Washington Center
Sun 03:57:40 AM 35.1128 -78.4256 35° Northeast 500 575 30,000  Level Washington Center
Sun 03:58:40 AM 35.2278 -78.3253 35° Northeast 505 581 30,000  Level Washington Center
Sun 03:59:40 AM 35.3342 -78.2347 35° Northeast 511 588 30,000  Level Washington Center
Sun 04:00:40 AM 35.4531 -78.1317 35° Northeast 516 594 30,000  Level Washington Center
Sun 04:01:40 AM 35.5700 -78.0333 34° Northeast 516 594 30,000  Level Washington Center
Sun 04:02:40 AM 35.6889 -77.9294 35° Northeast 516 594 30,000  Level Washington Center
Sun 04:03:40 AM 35.8075 -77.8306 34° Northeast 516 594 30,000  Level Washington Center
Sun 04:04:40 AM 35.9242 -77.7261 36° Northeast 516 594 30,000  Level Washington Center
Sun 04:05:40 AM 36.0408 -77.6264 35° Northeast 516 594 30,000  Level Washington Center
Sun 04:06:40 AM 36.1572 -77.5239 35° Northeast 516 594 30,000  Level Washington Center
Sun 04:07:40 AM 36.2714 -77.4211 36° Northeast 516 594 30,000  Level Washington Center
Sun 04:08:40 AM 36.3900 -77.3156 36° Northeast 510 587 30,000  Level Washington Center
Sun 04:09:40 AM 36.5061 -77.2147 35° Northeast 510 587 30,000  Level Washington Center
Sun 04:10:40 AM 36.6200 -77.1083 37° Northeast 510 587 30,000  Level Washington Center
Sun 04:11:40 AM 36.7361 -77.0044 36° Northeast 510 587 30,000  Level Washington Center
Sun 04:12:40 AM 36.8561 -76.8975 35° Northeast 510 587 30,000  Level Washington Center
Sun 04:13:40 AM 36.9847 -76.7800 36° Northeast 515 593 30,000  Level Washington Center
Sun 04:14:40 AM 37.1025 -76.6725 36° Northeast 515 593 30,000  Level Washington Center
Sun 04:15:40 AM 37.2181 -76.5672 36° Northeast 515 593 30,000  Level Washington Center
Sun 04:16:40 AM 37.3358 -76.4592 36° Northeast 520 598 30,000  Level Washington Center
Sun 04:17:40 AM 37.4556 -76.3506 36° Northeast 520 598 30,000  Level Washington Center
Sun 04:18:40 AM 37.5750 -76.2417 36° Northeast 525 604 30,000  Level Washington Center
Sun 04:19:40 AM 37.6944 -76.1350 35° Northeast 525 604 30,000  Level Washington Center
Sun 04:20:40 AM 37.7992 -76.0333 37° Northeast 531 611 30,000  Level Washington Center
Sun 04:21:40 AM 37.9161 -75.9261 36° Northeast 526 605 30,000  Level Washington Center
Sun 04:22:40 AM 38.0478 -75.8000 37° Northeast 531 611 30,000  Level Washington Center
Sun 04:23:40 AM 38.1544 -75.7000 36° Northeast 526 605 30,000  Level Washington Center
Sun 04:24:40 AM 38.2733 -75.5892 36° Northeast 526 605 30,000  Level Washington Center
Sun 04:25:40 AM 38.3942 -75.4778 36° Northeast 526 605 30,000  Level Washington Center
Sun 04:26:40 AM 38.5128 -75.3689 36° Northeast 526 605 30,000  Level Washington Center
Sun 04:27:40 AM 38.6314 -75.2542 37° Northeast 526 605 30,000  Level Washington Center
Sun 04:28:40 AM 38.7497 -75.1392 37° Northeast 526 605 30,000  Level Washington Center
Sun 04:29:40 AM 38.8681 -75.0264 37° Northeast 526 605 30,000  Level Washington Center
Sun 04:30:40 AM 38.9842 -74.9106 38° Northeast 526 605 30,000 -350 Level Washington Center
Sun 04:31:40 AM 39.1003 -74.7972 37° Northeast 526 605 29,300 -1,300 Descending Washington Center
Sun 04:32:40 AM 39.2100 -74.6808 39° Northeast 519 597 27,400 -2,300 Descending Washington Center
Sun 04:33:40 AM 39.3172 -74.5642 40° Northeast 507 583 24,700 -2,747 Descending Washington Center
Sun 04:34:03 AM 39.3556 -74.5244 39° Northeast 497 572 23,600 -2,819 Descending New York Center
Sun 04:35:03 AM 39.4528 -74.4139 41° Northeast 472 543 20,800 -2,628 Descending New York Center
Sun 04:36:04 AM 39.5564 -74.2981 41° Northeast 448 516 18,300 -1,377 Descending New York Center
Sun 04:37:05 AM 39.6447 -74.2056 39° Northeast 416 479 18,000 -151 Descending New York Center
Sun 04:38:03 AM 39.7244 -74.1178 40° Northeast 391 450 18,000 -559 Level New York Center
Sun 04:39:03 AM 39.7953 -74.0400 40° Northeast 369 425 16,900 -1,650 Descending New York Center
Sun 04:40:03 AM 39.8786 -73.9628 35° Northeast 363 418 14,700 -2,361 Descending New York Center
Sun 04:41:05 AM 39.9783 -73.9022 25° Northeast 357 411 12,100 -1,800 Descending New York Center
Sun 04:42:03 AM 40.0631 -73.8519 24° Northeast 339 390 11,100 -1,169 Descending New York Center
Sun 04:43:03 AM 40.1369 -73.8092 24° Northeast 310 357 9,800 -1,325 Descending New York Center
Sun 04:43:20 AM 40.1667 -73.8000 13° North 286 329 9,400 -1,437 Descending New York TRACON
Sun 04:44:14 AM 40.2167 -73.7667 27° Northeast 270 311 8,100 -1,500 Descending New York TRACON
Sun 04:45:08 AM 40.2833 -73.7333 21° North 261 300 6,700 -1,421 Descending New York TRACON
Sun 04:46:08 AM 40.3500 -73.7000 21° North 250 288 5,400 -1,400 Descending New York TRACON
Sun 04:47:08 AM 40.4167 -73.6667 21° North 244 281 3,900 -1,150 Descending New York TRACON
Sun 04:48:08 AM 40.4667 -73.6000 45° Northeast 233 268 3,100 -421 Descending New York TRACON
Sun 04:49:02 AM 40.5000 -73.6000 360° North 211 243 3,100 -263 Level New York TRACON
Sun 04:50:02 AM 40.5500 -73.6500 323° Northwest 176 203 2,600 -600 Descending New York TRACON
Sun 04:51:02 AM 40.5833 -73.6833 323° Northwest 139 160 1,900 -700 Descending New York TRACON
Sun 04:52:02 AM 40.6000 -73.7167 303° West 111 128 1,200 -650 Descending New York TRACON
Sun 04:53:02 AM 40.6167 -73.7500 303° West 117 135 600 3,249 Descending New York TRACON
Sun 04:55:03 AM 40.6472 -73.8181 301° West 108 124 11,000 3,448 Climbing New York Center
Sun 04:56:03 AM 40.6631 -73.8542 300° West 108 124 11,000  Level New York Center
Sun 04:57:03 AM 40.6767 -73.8878 298° West 108 124 11,000  Level New York Center
Sun 04:58:03 AM 40.6828 -73.9017 300° West 108 124 11,000  Level New York Center
Sun 05:01:00 AM 40.6398 -73.7789 108° East  Level Estimated
Sun 05:08:00 AM 40.6398 -73.7789 108° East  Level Estimated
Sun 05:09:00 AM 40.6398 -73.7789 108° East  Level Estimated
Sun 05:10:00 AM 40.6398 -73.7789 108° East  Level Estimated
Sun 05:11:00 AM 40.6398 -73.7789 108° East  Level Estimated
Sun 05:12:00 AM 40.6398 -73.7789 108° East  Level Estimated
Sun 05:13:00 AM 40.6398 -73.7789 108° East  Level Estimated
Sun 05:14:00 AM 40.6398 -73.7789 108° East  Level Estimated

Login

Don't have an account? Register now (free) for customized features, flight alerts, and more!